sensor_id;sensor_type;location;lat;lon;timestamp;P1;durP1;ratioP1;P2;durP2;ratioP2
37379;SDS011;23252;-33.992;18.480;2022-10-16T00:01:19;15.75;;;6.30;;
37379;SDS011;23252;-33.992;18.480;2022-10-16T00:03:47;16.27;;;5.85;;
37379;SDS011;23252;-33.992;18.480;2022-10-16T00:06:15;17.58;;;6.20;;
37379;SDS011;23252;-33.992;18.480;2022-10-16T00:08:43;17.92;;;6.22;;
37379;SDS011;23252;-33.992;18.480;2022-10-16T00:11:11;17.13;;;6.03;;
37379;SDS011;23252;-33.992;18.480;2022-10-16T00:13:40;16.35;;;6.47;;
37379;SDS011;23252;-33.992;18.480;2022-10-16T00:16:08;13.70;;;5.85;;
37379;SDS011;23252;-33.992;18.480;2022-10-16T00:18:36;17.58;;;6.32;;
37379;SDS011;23252;-33.992;18.480;2022-10-16T00:23:34;16.67;;;6.70;;
37379;SDS011;23252;-33.992;18.480;2022-10-16T00:26:03;14.77;;;6.28;;
37379;SDS011;23252;-33.992;18.480;2022-10-16T00:28:34;13.93;;;7.00;;
37379;SDS011;23252;-33.992;18.480;2022-10-16T00:31:05;20.30;;;7.43;;
37379;SDS011;23252;-33.992;18.480;2022-10-16T00:33:33;18.15;;;7.28;;
37379;SDS011;23252;-33.992;18.480;2022-10-16T00:36:00;19.98;;;8.57;;
37379;SDS011;23252;-33.992;18.480;2022-10-16T00:38:28;18.50;;;8.40;;
37379;SDS011;23252;-33.992;18.480;2022-10-16T00:40:55;13.73;;;7.78;;
37379;SDS011;23252;-33.992;18.480;2022-10-16T00:46:13;16.85;;;6.30;;
37379;SDS011;23252;-33.992;18.480;2022-10-16T00:49:11;13.25;;;6.25;;
37379;SDS011;23252;-33.992;18.480;2022-10-16T00:51:39;13.40;;;6.38;;
37379;SDS011;23252;-33.992;18.480;2022-10-16T00:54:12;17.63;;;7.63;;
37379;SDS011;23252;-33.992;18.480;2022-10-16T00:56:41;22.80;;;7.45;;
37379;SDS011;23252;-33.992;18.480;2022-10-16T00:59:14;19.65;;;7.90;;
37379;SDS011;23252;-33.992;18.480;2022-10-16T01:01:46;20.23;;;8.70;;
37379;SDS011;23252;-33.992;18.480;2022-10-16T01:04:13;32.45;;;9.70;;
37379;SDS011;23252;-33.992;18.480;2022-10-16T01:09:38;31.45;;;7.70;;
37379;SDS011;23252;-33.992;18.480;2022-10-16T01:12:11;30.00;;;8.20;;
37379;SDS011;23252;-33.992;18.480;2022-10-16T01:19:44;25.38;;;7.95;;
37379;SDS011;23252;-33.992;18.480;2022-10-16T01:22:23;30.10;;;8.60;;
37379;SDS011;23252;-33.992;18.480;2022-10-16T01:24:54;25.60;;;7.05;;
37379;SDS011;23252;-33.992;18.480;2022-10-16T01:27:27;27.05;;;8.73;;
37379;SDS011;23252;-33.992;18.480;2022-10-16T01:29:58;24.63;;;8.00;;
37379;SDS011;23252;-33.992;18.480;2022-10-16T01:32:44;25.33;;;7.23;;
37379;SDS011;23252;-33.992;18.480;2022-10-16T01:35:37;19.52;;;6.57;;
37379;SDS011;23252;-33.992;18.480;2022-10-16T01:38:30;24.30;;;6.30;;
37379;SDS011;23252;-33.992;18.480;2022-10-16T01:41:13;16.38;;;6.18;;
37379;SDS011;23252;-33.992;18.480;2022-10-16T01:44:35;19.75;;;6.03;;
37379;SDS011;23252;-33.992;18.480;2022-10-16T01:46:43;20.70;;;6.82;;
37379;SDS011;23252;-33.992;18.480;2022-10-16T01:49:14;19.50;;;5.95;;
37379;SDS011;23252;-33.992;18.480;2022-10-16T01:51:41;19.38;;;6.40;;
37379;SDS011;23252;-33.992;18.480;2022-10-16T01:54:11;17.67;;;6.45;;
37379;SDS011;23252;-33.992;18.480;2022-10-16T01:56:41;12.90;;;5.72;;
37379;SDS011;23252;-33.992;18.480;2022-10-16T01:59:16;22.70;;;6.07;;
37379;SDS011;23252;-33.992;18.480;2022-10-16T02:01:47;21.35;;;7.03;;
37379;SDS011;23252;-33.992;18.480;2022-10-16T02:04:26;15.43;;;5.75;;
37379;SDS011;23252;-33.992;18.480;2022-10-16T02:07:14;21.75;;;6.15;;
37379;SDS011;23252;-33.992;18.480;2022-10-16T02:12:14;20.80;;;5.47;;
37379;SDS011;23252;-33.992;18.480;2022-10-16T02:14:49;17.00;;;5.75;;
37379;SDS011;23252;-33.992;18.480;2022-10-16T02:17:19;22.40;;;6.77;;
37379;SDS011;23252;-33.992;18.480;2022-10-16T02:19:47;18.80;;;8.68;;
37379;SDS011;23252;-33.992;18.480;2022-10-16T02:22:21;19.65;;;9.38;;
37379;SDS011;23252;-33.992;18.480;2022-10-16T02:25:19;19.45;;;8.02;;
37379;SDS011;23252;-33.992;18.480;2022-10-16T02:33:11;19.45;;;7.78;;
37379;SDS011;23252;-33.992;18.480;2022-10-16T02:35:39;18.25;;;7.68;;
37379;SDS011;23252;-33.992;18.480;2022-10-16T02:38:07;16.95;;;7.78;;
37379;SDS011;23252;-33.992;18.480;2022-10-16T02:40:34;16.58;;;8.00;;
37379;SDS011;23252;-33.992;18.480;2022-10-16T02:43:03;18.63;;;7.57;;
37379;SDS011;23252;-33.992;18.480;2022-10-16T02:45:30;19.83;;;8.23;;
37379;SDS011;23252;-33.992;18.480;2022-10-16T02:47:57;24.77;;;10.07;;
37379;SDS011;23252;-33.992;18.480;2022-10-16T02:50:23;20.93;;;10.57;;
37379;SDS011;23252;-33.992;18.480;2022-10-16T02:52:50;32.30;;;11.73;;
37379;SDS011;23252;-33.992;18.480;2022-10-16T02:55:17;18.67;;;8.77;;
37379;SDS011;23252;-33.992;18.480;2022-10-16T02:57:43;22.65;;;8.93;;
37379;SDS011;23252;-33.992;18.480;2022-10-16T03:00:11;16.42;;;7.45;;
37379;SDS011;23252;-33.992;18.480;2022-10-16T03:02:39;18.35;;;8.15;;
37379;SDS011;23252;-33.992;18.480;2022-10-16T03:05:06;19.63;;;8.25;;
37379;SDS011;23252;-33.992;18.480;2022-10-16T03:10:00;18.85;;;8.18;;
37379;SDS011;23252;-33.992;18.480;2022-10-16T03:12:27;15.23;;;7.65;;
37379;SDS011;23252;-33.992;18.480;2022-10-16T03:17:23;19.30;;;7.75;;
37379;SDS011;23252;-33.992;18.480;2022-10-16T03:19:50;16.38;;;8.13;;
37379;SDS011;23252;-33.992;18.480;2022-10-16T03:22:17;15.77;;;8.10;;
37379;SDS011;23252;-33.992;18.480;2022-10-16T03:24:43;16.23;;;8.53;;
37379;SDS011;23252;-33.992;18.480;2022-10-16T03:27:10;16.27;;;8.60;;
37379;SDS011;23252;-33.992;18.480;2022-10-16T03:29:36;18.67;;;9.57;;
37379;SDS011;23252;-33.992;18.480;2022-10-16T03:32:02;19.13;;;10.60;;
37379;SDS011;23252;-33.992;18.480;2022-10-16T03:34:29;19.80;;;9.65;;
37379;SDS011;23252;-33.992;18.480;2022-10-16T03:36:56;14.35;;;8.25;;
37379;SDS011;23252;-33.992;18.480;2022-10-16T03:39:22;16.25;;;9.00;;
37379;SDS011;23252;-33.992;18.480;2022-10-16T03:41:49;19.48;;;9.63;;
37379;SDS011;23252;-33.992;18.480;2022-10-16T03:44:15;15.03;;;8.07;;
37379;SDS011;23252;-33.992;18.480;2022-10-16T03:46:42;18.30;;;9.00;;
37379;SDS011;23252;-33.992;18.480;2022-10-16T03:49:08;20.17;;;8.82;;
37379;SDS011;23252;-33.992;18.480;2022-10-16T03:51:35;20.10;;;9.07;;
37379;SDS011;23252;-33.992;18.480;2022-10-16T03:54:02;20.27;;;8.20;;
37379;SDS011;23252;-33.992;18.480;2022-10-16T03:56:28;19.40;;;8.13;;
37379;SDS011;23252;-33.992;18.480;2022-10-16T03:58:55;16.03;;;7.53;;
37379;SDS011;23252;-33.992;18.480;2022-10-16T04:01:21;28.40;;;8.67;;
37379;SDS011;23252;-33.992;18.480;2022-10-16T04:03:48;34.30;;;8.30;;
37379;SDS011;23252;-33.992;18.480;2022-10-16T04:06:14;25.83;;;7.53;;
37379;SDS011;23252;-33.992;18.480;2022-10-16T04:08:44;25.90;;;7.70;;
37379;SDS011;23252;-33.992;18.480;2022-10-16T04:11:10;28.95;;;7.53;;
37379;SDS011;23252;-33.992;18.480;2022-10-16T04:13:37;22.92;;;7.68;;
37379;SDS011;23252;-33.992;18.480;2022-10-16T04:16:04;24.90;;;8.73;;
37379;SDS011;23252;-33.992;18.480;2022-10-16T04:18:30;21.23;;;6.60;;
37379;SDS011;23252;-33.992;18.480;2022-10-16T04:21:01;25.20;;;7.47;;
37379;SDS011;23252;-33.992;18.480;2022-10-16T04:23:31;23.85;;;6.85;;
37379;SDS011;23252;-33.992;18.480;2022-10-16T04:25:58;29.58;;;7.30;;
37379;SDS011;23252;-33.992;18.480;2022-10-16T04:28:25;29.23;;;7.45;;
37379;SDS011;23252;-33.992;18.480;2022-10-16T04:30:52;27.73;;;7.65;;
37379;SDS011;23252;-33.992;18.480;2022-10-16T04:33:19;26.40;;;6.80;;
37379;SDS011;23252;-33.992;18.480;2022-10-16T04:35:45;28.73;;;6.83;;
37379;SDS011;23252;-33.992;18.480;2022-10-16T04:38:12;32.87;;;7.77;;
37379;SDS011;23252;-33.992;18.480;2022-10-16T04:40:38;27.00;;;7.30;;
37379;SDS011;23252;-33.992;18.480;2022-10-16T04:43:06;29.30;;;7.63;;
37379;SDS011;23252;-33.992;18.480;2022-10-16T04:45:33;31.10;;;6.60;;
37379;SDS011;23252;-33.992;18.480;2022-10-16T04:48:00;30.37;;;7.57;;
37379;SDS011;23252;-33.992;18.480;2022-10-16T04:50:26;28.23;;;7.57;;
37379;SDS011;23252;-33.992;18.480;2022-10-16T04:52:53;28.50;;;7.60;;
37379;SDS011;23252;-33.992;18.480;2022-10-16T04:55:19;31.48;;;9.75;;
37379;SDS011;23252;-33.992;18.480;2022-10-16T04:57:46;28.23;;;8.40;;
37379;SDS011;23252;-33.992;18.480;2022-10-16T05:00:13;25.07;;;8.40;;
37379;SDS011;23252;-33.992;18.480;2022-10-16T05:02:39;24.73;;;7.97;;
37379;SDS011;23252;-33.992;18.480;2022-10-16T05:05:06;31.43;;;8.73;;
37379;SDS011;23252;-33.992;18.480;2022-10-16T05:07:33;35.22;;;8.73;;
37379;SDS011;23252;-33.992;18.480;2022-10-16T05:09:59;31.83;;;8.63;;
37379;SDS011;23252;-33.992;18.480;2022-10-16T05:12:26;36.80;;;8.10;;
37379;SDS011;23252;-33.992;18.480;2022-10-16T05:14:52;34.23;;;7.23;;
37379;SDS011;23252;-33.992;18.480;2022-10-16T05:17:26;31.48;;;7.43;;
37379;SDS011;23252;-33.992;18.480;2022-10-16T05:19:53;30.60;;;7.60;;
37379;SDS011;23252;-33.992;18.480;2022-10-16T05:22:19;31.00;;;7.37;;
37379;SDS011;23252;-33.992;18.480;2022-10-16T05:24:46;32.67;;;7.30;;
37379;SDS011;23252;-33.992;18.480;2022-10-16T05:27:12;28.17;;;7.33;;
37379;SDS011;23252;-33.992;18.480;2022-10-16T05:29:47;27.80;;;7.22;;
37379;SDS011;23252;-33.992;18.480;2022-10-16T05:32:15;28.85;;;7.13;;
37379;SDS011;23252;-33.992;18.480;2022-10-16T05:34:42;19.60;;;6.30;;
37379;SDS011;23252;-33.992;18.480;2022-10-16T05:37:10;25.00;;;6.97;;
37379;SDS011;23252;-33.992;18.480;2022-10-16T05:39:37;34.05;;;8.20;;
37379;SDS011;23252;-33.992;18.480;2022-10-16T05:44:31;25.73;;;7.00;;
37379;SDS011;23252;-33.992;18.480;2022-10-16T05:46:57;28.38;;;7.25;;
37379;SDS011;23252;-33.992;18.480;2022-10-16T05:49:24;22.02;;;6.43;;
37379;SDS011;23252;-33.992;18.480;2022-10-16T05:51:50;23.33;;;6.80;;
37379;SDS011;23252;-33.992;18.480;2022-10-16T05:54:17;19.87;;;6.30;;
37379;SDS011;23252;-33.992;18.480;2022-10-16T05:56:43;23.90;;;6.37;;
37379;SDS011;23252;-33.992;18.480;2022-10-16T05:59:10;30.17;;;5.80;;
37379;SDS011;23252;-33.992;18.480;2022-10-16T06:01:36;25.70;;;6.60;;
37379;SDS011;23252;-33.992;18.480;2022-10-16T06:04:02;23.40;;;5.47;;
37379;SDS011;23252;-33.992;18.480;2022-10-16T06:06:29;18.70;;;5.28;;
37379;SDS011;23252;-33.992;18.480;2022-10-16T06:08:56;21.70;;;5.13;;
37379;SDS011;23252;-33.992;18.480;2022-10-16T06:11:26;23.88;;;5.55;;
37379;SDS011;23252;-33.992;18.480;2022-10-16T06:13:55;23.45;;;5.43;;
37379;SDS011;23252;-33.992;18.480;2022-10-16T06:16:24;27.50;;;6.47;;
37379;SDS011;23252;-33.992;18.480;2022-10-16T06:18:52;24.40;;;5.55;;
37379;SDS011;23252;-33.992;18.480;2022-10-16T06:21:20;21.52;;;5.88;;
37379;SDS011;23252;-33.992;18.480;2022-10-16T06:23:50;25.25;;;5.45;;
37379;SDS011;23252;-33.992;18.480;2022-10-16T06:26:17;23.23;;;6.25;;
37379;SDS011;23252;-33.992;18.480;2022-10-16T06:28:46;27.40;;;6.68;;
37379;SDS011;23252;-33.992;18.480;2022-10-16T06:31:13;24.90;;;6.90;;
37379;SDS011;23252;-33.992;18.480;2022-10-16T06:33:40;22.02;;;5.93;;
37379;SDS011;23252;-33.992;18.480;2022-10-16T06:36:10;21.38;;;5.68;;
37379;SDS011;23252;-33.992;18.480;2022-10-16T06:38:39;24.30;;;6.28;;
37379;SDS011;23252;-33.992;18.480;2022-10-16T06:41:07;34.13;;;7.70;;
37379;SDS011;23252;-33.992;18.480;2022-10-16T06:43:36;37.40;;;6.47;;
37379;SDS011;23252;-33.992;18.480;2022-10-16T06:46:04;28.60;;;5.63;;
37379;SDS011;23252;-33.992;18.480;2022-10-16T06:48:34;21.00;;;5.20;;
37379;SDS011;23252;-33.992;18.480;2022-10-16T06:51:02;19.75;;;4.93;;
37379;SDS011;23252;-33.992;18.480;2022-10-16T06:53:40;20.35;;;5.03;;
37379;SDS011;23252;-33.992;18.480;2022-10-16T06:56:14;21.75;;;5.85;;
37379;SDS011;23252;-33.992;18.480;2022-10-16T06:58:43;21.42;;;4.82;;
37379;SDS011;23252;-33.992;18.480;2022-10-16T07:03:37;21.80;;;5.10;;
37379;SDS011;23252;-33.992;18.480;2022-10-16T07:06:08;22.67;;;5.20;;
37379;SDS011;23252;-33.992;18.480;2022-10-16T07:08:36;25.95;;;5.28;;
37379;SDS011;23252;-33.992;18.480;2022-10-16T07:11:05;18.48;;;5.22;;
37379;SDS011;23252;-33.992;18.480;2022-10-16T07:13:34;21.05;;;5.20;;
37379;SDS011;23252;-33.992;18.480;2022-10-16T07:16:09;20.08;;;5.22;;
37379;SDS011;23252;-33.992;18.480;2022-10-16T07:18:38;19.23;;;4.60;;
37379;SDS011;23252;-33.992;18.480;2022-10-16T07:25:59;18.40;;;5.03;;
37379;SDS011;23252;-33.992;18.480;2022-10-16T07:28:26;16.20;;;4.00;;
37379;SDS011;23252;-33.992;18.480;2022-10-16T07:30:53;17.98;;;5.10;;
37379;SDS011;23252;-33.992;18.480;2022-10-16T07:33:19;21.05;;;5.03;;
37379;SDS011;23252;-33.992;18.480;2022-10-16T07:35:50;20.55;;;4.90;;
37379;SDS011;23252;-33.992;18.480;2022-10-16T07:38:18;15.50;;;4.43;;
37379;SDS011;23252;-33.992;18.480;2022-10-16T07:40:45;15.48;;;4.55;;
37379;SDS011;23252;-33.992;18.480;2022-10-16T07:43:12;18.60;;;5.40;;
37379;SDS011;23252;-33.992;18.480;2022-10-16T07:48:15;20.25;;;5.80;;
37379;SDS011;23252;-33.992;18.480;2022-10-16T07:50:42;16.38;;;4.90;;
37379;SDS011;23252;-33.992;18.480;2022-10-16T07:53:09;13.80;;;4.35;;
37379;SDS011;23252;-33.992;18.480;2022-10-16T07:55:36;17.83;;;4.03;;
37379;SDS011;23252;-33.992;18.480;2022-10-16T08:00:30;15.60;;;3.85;;
37379;SDS011;23252;-33.992;18.480;2022-10-16T08:02:58;11.75;;;4.75;;
37379;SDS011;23252;-33.992;18.480;2022-10-16T08:05:28;15.18;;;4.60;;
37379;SDS011;23252;-33.992;18.480;2022-10-16T08:07:55;16.38;;;4.53;;
37379;SDS011;23252;-33.992;18.480;2022-10-16T08:10:23;15.77;;;4.75;;
37379;SDS011;23252;-33.992;18.480;2022-10-16T08:12:51;12.65;;;4.25;;
37379;SDS011;23252;-33.992;18.480;2022-10-16T08:17:44;14.15;;;3.80;;
37379;SDS011;23252;-33.992;18.480;2022-10-16T08:20:19;12.55;;;3.95;;
37379;SDS011;23252;-33.992;18.480;2022-10-16T08:22:46;12.35;;;4.85;;
37379;SDS011;23252;-33.992;18.480;2022-10-16T08:25:12;11.15;;;4.10;;
37379;SDS011;23252;-33.992;18.480;2022-10-16T08:27:39;13.70;;;4.32;;
37379;SDS011;23252;-33.992;18.480;2022-10-16T08:30:06;14.50;;;4.85;;
37379;SDS011;23252;-33.992;18.480;2022-10-16T08:32:33;12.52;;;4.28;;
37379;SDS011;23252;-33.992;18.480;2022-10-16T08:34:59;11.82;;;4.07;;
37379;SDS011;23252;-33.992;18.480;2022-10-16T08:37:29;13.95;;;4.57;;
37379;SDS011;23252;-33.992;18.480;2022-10-16T08:39:56;14.80;;;4.63;;
37379;SDS011;23252;-33.992;18.480;2022-10-16T08:50:36;15.73;;;5.30;;
37379;SDS011;23252;-33.992;18.480;2022-10-16T08:53:04;12.13;;;4.70;;
37379;SDS011;23252;-33.992;18.480;2022-10-16T09:00:37;13.35;;;4.88;;
37379;SDS011;23252;-33.992;18.480;2022-10-16T09:05:55;10.98;;;4.18;;
37379;SDS011;23252;-33.992;18.480;2022-10-16T09:11:29;16.33;;;4.75;;
37379;SDS011;23252;-33.992;18.480;2022-10-16T09:19:44;11.18;;;4.60;;
37379;SDS011;23252;-33.992;18.480;2022-10-16T09:22:17;12.40;;;4.43;;
37379;SDS011;23252;-33.992;18.480;2022-10-16T09:24:46;12.93;;;4.55;;
37379;SDS011;23252;-33.992;18.480;2022-10-16T09:27:13;15.85;;;5.55;;
37379;SDS011;23252;-33.992;18.480;2022-10-16T09:32:14;12.00;;;5.15;;
37379;SDS011;23252;-33.992;18.480;2022-10-16T09:34:45;12.25;;;4.65;;
37379;SDS011;23252;-33.992;18.480;2022-10-16T09:37:22;11.63;;;4.78;;
37379;SDS011;23252;-33.992;18.480;2022-10-16T09:39:52;12.48;;;5.20;;
37379;SDS011;23252;-33.992;18.480;2022-10-16T09:44:53;14.00;;;5.00;;
37379;SDS011;23252;-33.992;18.480;2022-10-16T09:47:21;8.30;;;4.63;;
37379;SDS011;23252;-33.992;18.480;2022-10-16T09:49:54;15.43;;;4.88;;
37379;SDS011;23252;-33.992;18.480;2022-10-16T09:52:23;10.57;;;5.40;;
37379;SDS011;23252;-33.992;18.480;2022-10-16T09:57:17;9.32;;;5.22;;
37379;SDS011;23252;-33.992;18.480;2022-10-16T09:59:45;13.10;;;4.95;;
37379;SDS011;23252;-33.992;18.480;2022-10-16T10:02:30;11.60;;;4.97;;
37379;SDS011;23252;-33.992;18.480;2022-10-16T10:05:00;16.67;;;5.30;;
37379;SDS011;23252;-33.992;18.480;2022-10-16T10:07:29;17.27;;;5.15;;
37379;SDS011;23252;-33.992;18.480;2022-10-16T10:10:00;9.20;;;4.97;;
37379;SDS011;23252;-33.992;18.480;2022-10-16T10:12:30;11.85;;;5.10;;
37379;SDS011;23252;-33.992;18.480;2022-10-16T10:15:07;12.30;;;4.75;;
37379;SDS011;23252;-33.992;18.480;2022-10-16T10:17:56;9.20;;;5.00;;
37379;SDS011;23252;-33.992;18.480;2022-10-16T10:22:56;9.73;;;4.53;;
37379;SDS011;23252;-33.992;18.480;2022-10-16T10:25:39;7.15;;;4.47;;
37379;SDS011;23252;-33.992;18.480;2022-10-16T10:28:21;9.67;;;4.93;;
37379;SDS011;23252;-33.992;18.480;2022-10-16T10:33:41;11.00;;;4.93;;
37379;SDS011;23252;-33.992;18.480;2022-10-16T10:36:36;9.93;;;5.38;;
37379;SDS011;23252;-33.992;18.480;2022-10-16T10:58:08;6.68;;;4.80;;
37379;SDS011;23252;-33.992;18.480;2022-10-16T11:00:42;9.60;;;5.10;;
37379;SDS011;23252;-33.992;18.480;2022-10-16T11:03:26;8.90;;;5.13;;
37379;SDS011;23252;-33.992;18.480;2022-10-16T11:06:10;9.90;;;5.68;;
37379;SDS011;23252;-33.992;18.480;2022-10-16T11:17:19;6.75;;;4.47;;
37379;SDS011;23252;-33.992;18.480;2022-10-16T11:22:22;10.05;;;4.70;;
37379;SDS011;23252;-33.992;18.480;2022-10-16T11:28:23;14.20;;;6.10;;
37379;SDS011;23252;-33.992;18.480;2022-10-16T11:30:45;14.80;;;6.45;;
37379;SDS011;23252;-33.992;18.480;2022-10-16T11:38:30;10.55;;;6.13;;
37379;SDS011;23252;-33.992;18.480;2022-10-16T11:41:03;14.67;;;6.17;;
37379;SDS011;23252;-33.992;18.480;2022-10-16T11:43:38;15.80;;;6.25;;
37379;SDS011;23252;-33.992;18.480;2022-10-16T11:46:13;13.48;;;6.25;;
37379;SDS011;23252;-33.992;18.480;2022-10-16T11:48:55;15.60;;;6.82;;
37379;SDS011;23252;-33.992;18.480;2022-10-16T11:51:42;18.83;;;7.47;;
37379;SDS011;23252;-33.992;18.480;2022-10-16T11:54:26;12.23;;;6.50;;
37379;SDS011;23252;-33.992;18.480;2022-10-16T11:57:19;14.13;;;6.55;;
37379;SDS011;23252;-33.992;18.480;2022-10-16T12:00:00;11.38;;;6.13;;
37379;SDS011;23252;-33.992;18.480;2022-10-16T12:07:46;10.73;;;5.95;;
37379;SDS011;23252;-33.992;18.480;2022-10-16T12:10:34;11.50;;;6.03;;
37379;SDS011;23252;-33.992;18.480;2022-10-16T12:13:27;11.27;;;6.25;;
37379;SDS011;23252;-33.992;18.480;2022-10-16T12:16:05;15.13;;;6.53;;
37379;SDS011;23252;-33.992;18.480;2022-10-16T12:18:45;9.93;;;6.07;;
37379;SDS011;23252;-33.992;18.480;2022-10-16T12:21:14;13.45;;;6.00;;
37379;SDS011;23252;-33.992;18.480;2022-10-16T12:23:54;14.55;;;6.22;;
37379;SDS011;23252;-33.992;18.480;2022-10-16T12:26:24;10.88;;;6.55;;
37379;SDS011;23252;-33.992;18.480;2022-10-16T12:28:51;12.27;;;5.95;;
37379;SDS011;23252;-33.992;18.480;2022-10-16T12:31:18;10.48;;;5.80;;
37379;SDS011;23252;-33.992;18.480;2022-10-16T12:33:59;12.25;;;6.45;;
37379;SDS011;23252;-33.992;18.480;2022-10-16T12:36:28;11.38;;;5.63;;
37379;SDS011;23252;-33.992;18.480;2022-10-16T12:38:59;9.10;;;5.30;;
37379;SDS011;23252;-33.992;18.480;2022-10-16T12:41:34;12.02;;;5.70;;
37379;SDS011;23252;-33.992;18.480;2022-10-16T12:44:05;10.68;;;5.50;;
37379;SDS011;23252;-33.992;18.480;2022-10-16T12:46:47;9.50;;;5.13;;
37379;SDS011;23252;-33.992;18.480;2022-10-16T12:49:28;9.15;;;5.43;;
37379;SDS011;23252;-33.992;18.480;2022-10-16T12:51:57;8.40;;;5.10;;
37379;SDS011;23252;-33.992;18.480;2022-10-16T12:54:28;10.75;;;4.70;;
37379;SDS011;23252;-33.992;18.480;2022-10-16T12:57:45;13.43;;;5.90;;
37379;SDS011;23252;-33.992;18.480;2022-10-16T13:11:06;12.15;;;5.93;;
37379;SDS011;23252;-33.992;18.480;2022-10-16T13:19:29;10.88;;;5.60;;
37379;SDS011;23252;-33.992;18.480;2022-10-16T13:25:25;10.50;;;5.45;;
37379;SDS011;23252;-33.992;18.480;2022-10-16T13:28:03;13.95;;;5.45;;
37379;SDS011;23252;-33.992;18.480;2022-10-16T13:30:42;10.70;;;5.13;;
37379;SDS011;23252;-33.992;18.480;2022-10-16T13:33:20;9.93;;;4.80;;
37379;SDS011;23252;-33.992;18.480;2022-10-16T13:35:54;13.73;;;5.32;;
37379;SDS011;23252;-33.992;18.480;2022-10-16T13:38:23;10.82;;;5.25;;
37379;SDS011;23252;-33.992;18.480;2022-10-16T13:43:22;18.55;;;5.63;;
37379;SDS011;23252;-33.992;18.480;2022-10-16T13:46:05;15.07;;;5.35;;
37379;SDS011;23252;-33.992;18.480;2022-10-16T13:48:36;10.02;;;4.97;;
37379;SDS011;23252;-33.992;18.480;2022-10-16T13:53:38;13.90;;;5.85;;
37379;SDS011;23252;-33.992;18.480;2022-10-16T13:56:15;15.68;;;5.40;;
37379;SDS011;23252;-33.992;18.480;2022-10-16T13:58:57;16.73;;;6.00;;
37379;SDS011;23252;-33.992;18.480;2022-10-16T14:01:29;11.55;;;5.68;;
37379;SDS011;23252;-33.992;18.480;2022-10-16T14:04:05;13.35;;;5.15;;
37379;SDS011;23252;-33.992;18.480;2022-10-16T14:06:35;17.33;;;6.50;;
37379;SDS011;23252;-33.992;18.480;2022-10-16T14:09:13;12.13;;;5.50;;
37379;SDS011;23252;-33.992;18.480;2022-10-16T14:11:54;15.88;;;5.40;;
37379;SDS011;23252;-33.992;18.480;2022-10-16T14:16:57;12.13;;;5.72;;
37379;SDS011;23252;-33.992;18.480;2022-10-16T14:21:52;15.02;;;5.30;;
37379;SDS011;23252;-33.992;18.480;2022-10-16T14:26:57;12.23;;;5.53;;
37379;SDS011;23252;-33.992;18.480;2022-10-16T14:29:25;13.27;;;6.32;;
37379;SDS011;23252;-33.992;18.480;2022-10-16T14:32:00;13.20;;;8.35;;
37379;SDS011;23252;-33.992;18.480;2022-10-16T14:34:52;21.65;;;10.45;;
37379;SDS011;23252;-33.992;18.480;2022-10-16T14:37:27;17.15;;;10.32;;
37379;SDS011;23252;-33.992;18.480;2022-10-16T14:39:55;33.95;;;20.50;;
37379;SDS011;23252;-33.992;18.480;2022-10-16T14:42:23;32.38;;;16.80;;
37379;SDS011;23252;-33.992;18.480;2022-10-16T14:44:51;21.42;;;12.70;;
37379;SDS011;23252;-33.992;18.480;2022-10-16T14:47:23;15.23;;;7.47;;
37379;SDS011;23252;-33.992;18.480;2022-10-16T14:49:52;14.52;;;7.00;;
37379;SDS011;23252;-33.992;18.480;2022-10-16T14:52:24;16.13;;;7.75;;
37379;SDS011;23252;-33.992;18.480;2022-10-16T14:54:51;12.60;;;6.55;;
37379;SDS011;23252;-33.992;18.480;2022-10-16T14:57:26;10.65;;;5.82;;
37379;SDS011;23252;-33.992;18.480;2022-10-16T14:59:56;13.15;;;6.40;;
37379;SDS011;23252;-33.992;18.480;2022-10-16T15:04:52;24.85;;;11.63;;
37379;SDS011;23252;-33.992;18.480;2022-10-16T15:07:19;17.52;;;8.90;;
37379;SDS011;23252;-33.992;18.480;2022-10-16T15:09:46;18.70;;;7.45;;
37379;SDS011;23252;-33.992;18.480;2022-10-16T15:12:13;11.02;;;6.63;;
37379;SDS011;23252;-33.992;18.480;2022-10-16T15:14:39;15.88;;;6.15;;
37379;SDS011;23252;-33.992;18.480;2022-10-16T15:17:08;14.07;;;6.45;;
37379;SDS011;23252;-33.992;18.480;2022-10-16T15:19:35;15.88;;;6.18;;
37379;SDS011;23252;-33.992;18.480;2022-10-16T15:22:02;22.73;;;6.88;;
37379;SDS011;23252;-33.992;18.480;2022-10-16T15:24:29;14.02;;;6.60;;
37379;SDS011;23252;-33.992;18.480;2022-10-16T15:29:22;17.80;;;8.95;;
37379;SDS011;23252;-33.992;18.480;2022-10-16T15:31:49;19.63;;;11.20;;
37379;SDS011;23252;-33.992;18.480;2022-10-16T15:36:43;27.48;;;16.85;;
37379;SDS011;23252;-33.992;18.480;2022-10-16T15:39:17;20.40;;;8.95;;
37379;SDS011;23252;-33.992;18.480;2022-10-16T15:41:45;41.83;;;29.67;;
37379;SDS011;23252;-33.992;18.480;2022-10-16T15:44:18;30.48;;;21.67;;
37379;SDS011;23252;-33.992;18.480;2022-10-16T15:46:48;24.50;;;15.18;;
37379;SDS011;23252;-33.992;18.480;2022-10-16T15:49:15;20.35;;;11.50;;
37379;SDS011;23252;-33.992;18.480;2022-10-16T15:51:42;17.77;;;9.80;;
37379;SDS011;23252;-33.992;18.480;2022-10-16T15:54:09;15.35;;;6.85;;
37379;SDS011;23252;-33.992;18.480;2022-10-16T15:56:36;13.05;;;6.75;;
37379;SDS011;23252;-33.992;18.480;2022-10-16T16:01:33;18.98;;;6.43;;
37379;SDS011;23252;-33.992;18.480;2022-10-16T16:04:00;15.10;;;6.50;;
37379;SDS011;23252;-33.992;18.480;2022-10-16T16:06:27;18.75;;;6.35;;
37379;SDS011;23252;-33.992;18.480;2022-10-16T16:08:54;15.43;;;7.25;;
37379;SDS011;23252;-33.992;18.480;2022-10-16T16:13:52;17.48;;;6.95;;
37379;SDS011;23252;-33.992;18.480;2022-10-16T16:16:28;16.48;;;6.25;;
37379;SDS011;23252;-33.992;18.480;2022-10-16T16:18:57;18.98;;;7.15;;
37379;SDS011;23252;-33.992;18.480;2022-10-16T16:21:39;14.45;;;6.65;;
37379;SDS011;23252;-33.992;18.480;2022-10-16T16:24:05;15.15;;;6.82;;
37379;SDS011;23252;-33.992;18.480;2022-10-16T16:26:35;10.85;;;6.55;;
37379;SDS011;23252;-33.992;18.480;2022-10-16T16:29:11;12.65;;;6.55;;
37379;SDS011;23252;-33.992;18.480;2022-10-16T16:31:42;16.05;;;6.93;;
37379;SDS011;23252;-33.992;18.480;2022-10-16T16:34:12;15.23;;;7.50;;
37379;SDS011;23252;-33.992;18.480;2022-10-16T16:36:40;11.95;;;5.57;;
37379;SDS011;23252;-33.992;18.480;2022-10-16T16:39:07;15.60;;;6.10;;
37379;SDS011;23252;-33.992;18.480;2022-10-16T16:41:33;16.08;;;6.32;;
37379;SDS011;23252;-33.992;18.480;2022-10-16T16:44:06;12.88;;;5.85;;
37379;SDS011;23252;-33.992;18.480;2022-10-16T16:46:40;14.82;;;6.43;;
37379;SDS011;23252;-33.992;18.480;2022-10-16T16:49:08;13.68;;;5.90;;
37379;SDS011;23252;-33.992;18.480;2022-10-16T16:51:38;12.70;;;6.00;;
37379;SDS011;23252;-33.992;18.480;2022-10-16T16:54:13;13.00;;;6.30;;
37379;SDS011;23252;-33.992;18.480;2022-10-16T16:56:49;13.05;;;6.32;;
37379;SDS011;23252;-33.992;18.480;2022-10-16T16:59:17;15.23;;;6.32;;
37379;SDS011;23252;-33.992;18.480;2022-10-16T17:01:45;16.75;;;6.40;;
37379;SDS011;23252;-33.992;18.480;2022-10-16T17:04:18;14.35;;;6.55;;
37379;SDS011;23252;-33.992;18.480;2022-10-16T17:06:53;19.45;;;6.05;;
37379;SDS011;23252;-33.992;18.480;2022-10-16T17:09:21;16.08;;;6.57;;
37379;SDS011;23252;-33.992;18.480;2022-10-16T17:14:16;21.00;;;6.55;;
37379;SDS011;23252;-33.992;18.480;2022-10-16T17:16:43;17.65;;;6.95;;
37379;SDS011;23252;-33.992;18.480;2022-10-16T17:19:15;14.85;;;6.93;;
37379;SDS011;23252;-33.992;18.480;2022-10-16T17:21:43;14.80;;;6.70;;